createdAt,value
2022-12-20T00:00:24.656Z,5.20
2022-12-20T00:01:24.648Z,5.23
2022-12-20T00:02:24.797Z,5.26
2022-12-20T00:03:24.619Z,5.26
2022-12-20T00:04:24.596Z,5.23
2022-12-20T00:05:24.568Z,5.33
2022-12-20T00:06:24.570Z,5.29
2022-12-20T00:07:24.563Z,5.37
2022-12-20T00:08:24.521Z,5.45
2022-12-20T00:09:24.515Z,5.33
2022-12-20T00:10:24.519Z,5.47
2022-12-20T00:11:24.472Z,5.35
2022-12-20T00:12:24.497Z,5.37
2022-12-20T00:13:24.446Z,5.44
2022-12-20T00:14:24.417Z,5.42
2022-12-20T00:15:24.416Z,5.40
2022-12-20T00:16:24.416Z,5.42
2022-12-20T00:17:24.438Z,5.51
2022-12-20T00:18:24.359Z,5.35
2022-12-20T00:19:24.327Z,5.35
2022-12-20T00:20:24.388Z,5.37
2022-12-20T00:21:24.297Z,5.37
2022-12-20T00:22:24.315Z,5.40
2022-12-20T00:23:24.283Z,5.30
2022-12-20T00:24:26.453Z,5.42
2022-12-20T00:25:25.239Z,5.37
2022-12-20T00:26:24.227Z,5.44
2022-12-20T00:27:24.229Z,5.37
2022-12-20T00:28:24.183Z,5.44
2022-12-20T00:29:24.163Z,5.40
2022-12-20T00:30:24.153Z,5.45
2022-12-20T00:31:24.162Z,5.41
2022-12-20T00:32:24.138Z,5.44
2022-12-20T00:33:24.096Z,5.32
2022-12-20T00:34:24.079Z,5.37
2022-12-20T00:35:24.065Z,5.33
2022-12-20T00:36:24.035Z,5.26
2022-12-20T00:37:24.062Z,5.20
2022-12-20T00:38:24.001Z,5.23
2022-12-20T00:39:23.985Z,5.23
2022-12-20T00:40:23.973Z,5.19
2022-12-20T00:41:23.963Z,5.20
2022-12-20T00:42:23.977Z,5.23
2022-12-20T00:43:23.932Z,5.24
2022-12-20T00:44:23.895Z,5.26
2022-12-20T00:45:23.905Z,5.20
2022-12-20T00:46:23.909Z,5.23
2022-12-20T00:47:23.875Z,5.23
2022-12-20T00:48:23.825Z,5.23
2022-12-20T00:49:23.815Z,5.17
2022-12-20T00:50:23.786Z,5.09
2022-12-20T00:51:23.810Z,5.09
2022-12-20T00:52:23.786Z,5.15
2022-12-20T00:53:26.490Z,5.11
2022-12-20T00:54:24.727Z,5.06
2022-12-20T00:55:23.705Z,5.08
2022-12-20T00:56:23.693Z,5.19
2022-12-20T00:57:23.725Z,5.08
2022-12-20T00:58:23.654Z,5.11
2022-12-20T00:59:23.640Z,5.09
2022-12-20T01:00:23.636Z,5.14
2022-12-20T01:01:23.696Z,5.12
2022-12-20T01:02:23.790Z,5.20
2022-12-20T01:03:23.766Z,5.09
2022-12-20T01:04:23.559Z,5.08
2022-12-20T01:05:23.530Z,5.11
2022-12-20T01:06:23.522Z,5.23
2022-12-20T01:07:23.547Z,5.20
2022-12-20T01:08:23.502Z,5.17
2022-12-20T01:09:23.459Z,5.17
2022-12-20T01:10:23.449Z,5.15
2022-12-20T01:11:23.429Z,5.30
2022-12-20T01:12:23.482Z,5.22
2022-12-20T01:13:23.517Z,5.23
2022-12-20T01:14:23.382Z,5.32
2022-12-20T01:15:23.367Z,5.27
2022-12-20T01:16:23.379Z,5.27
2022-12-20T01:17:23.365Z,5.44
2022-12-20T01:18:23.305Z,5.38
2022-12-20T01:19:23.299Z,5.45
2022-12-20T01:20:23.265Z,5.44
2022-12-20T01:21:23.281Z,5.30
2022-12-20T01:22:23.281Z,5.22
2022-12-20T01:23:24.225Z,5.26
2022-12-20T01:24:23.214Z,5.17
2022-12-20T01:25:23.196Z,5.22
2022-12-20T01:26:23.180Z,5.20
2022-12-20T01:27:23.178Z,5.15
2022-12-20T01:28:23.135Z,5.19
2022-12-20T01:29:23.131Z,5.15
2022-12-20T01:30:23.107Z,5.20
2022-12-20T01:31:23.143Z,5.22
2022-12-20T01:32:23.102Z,5.23
2022-12-20T01:33:23.058Z,5.30
2022-12-20T01:34:23.047Z,5.32
2022-12-20T01:35:23.020Z,5.49
2022-12-20T01:36:23.071Z,5.37
2022-12-20T01:37:23.020Z,5.42
2022-12-20T01:38:23.102Z,5.40
2022-12-20T01:39:22.949Z,5.24
2022-12-20T01:40:22.953Z,5.24
2022-12-20T01:41:22.922Z,5.17
2022-12-20T01:42:22.931Z,5.12
2022-12-20T01:43:22.901Z,5.23
2022-12-20T01:44:22.880Z,5.26
2022-12-20T01:45:22.854Z,5.22
2022-12-20T01:46:22.874Z,5.11
2022-12-20T01:47:22.863Z,5.20
2022-12-20T01:48:22.832Z,5.17
2022-12-20T01:49:22.811Z,5.23
2022-12-20T01:50:22.782Z,5.23
2022-12-20T01:51:22.761Z,5.24
2022-12-20T01:52:23.764Z,5.22
2022-12-20T01:53:22.751Z,5.27
2022-12-20T01:54:22.913Z,5.19
2022-12-20T01:55:22.687Z,5.15
2022-12-20T01:56:22.687Z,5.24
2022-12-20T01:57:22.700Z,5.24
2022-12-20T01:58:22.624Z,5.24
2022-12-20T01:59:22.613Z,5.23
2022-12-20T02:00:22.611Z,5.05
2022-12-20T02:01:22.750Z,5.11
2022-12-20T02:02:22.662Z,5.17
2022-12-20T02:03:22.569Z,5.17
2022-12-20T02:04:22.541Z,5.06
2022-12-20T02:05:22.526Z,5.22
2022-12-20T02:06:22.501Z,5.22
2022-12-20T02:07:22.512Z,5.20
2022-12-20T02:08:22.469Z,5.27
2022-12-20T02:09:22.440Z,5.22
2022-12-20T02:10:22.435Z,5.19
2022-12-20T02:11:22.407Z,5.12
2022-12-20T02:12:22.421Z,5.22
2022-12-20T02:13:22.372Z,5.20
2022-12-20T02:14:22.362Z,5.24
2022-12-20T02:15:22.349Z,5.33
2022-12-20T02:16:22.372Z,5.27
2022-12-20T02:17:22.335Z,5.41
2022-12-20T02:18:22.291Z,5.30
2022-12-20T02:19:22.294Z,5.27
2022-12-20T02:20:22.260Z,5.33
2022-12-20T02:21:22.253Z,5.32
2022-12-20T02:22:22.258Z,5.37
2022-12-20T02:23:22.196Z,5.42
2022-12-20T02:24:22.179Z,5.40
2022-12-20T02:25:22.170Z,5.41
2022-12-20T02:26:22.159Z,5.41
2022-12-20T02:27:22.164Z,5.37
2022-12-20T02:28:22.110Z,5.42
2022-12-20T02:29:22.106Z,5.52
2022-12-20T02:30:22.094Z,5.48
2022-12-20T02:31:22.107Z,5.60
2022-12-20T02:32:22.067Z,5.59
2022-12-20T02:33:22.085Z,5.56
2022-12-20T02:34:22.013Z,5.59
2022-12-20T02:35:21.998Z,5.65
2022-12-20T02:36:21.995Z,5.69
2022-12-20T02:37:21.962Z,5.66
2022-12-20T02:38:21.966Z,5.78
2022-12-20T02:39:21.932Z,5.65
2022-12-20T02:40:21.898Z,5.70
2022-12-20T02:41:21.916Z,5.75
2022-12-20T02:42:21.860Z,5.81
2022-12-20T02:43:21.889Z,5.63
2022-12-20T02:44:22.004Z,5.66
2022-12-20T02:45:21.822Z,5.69
2022-12-20T02:46:21.880Z,5.77
2022-12-20T02:47:21.792Z,5.74
2022-12-20T02:48:21.827Z,5.67
2022-12-20T02:49:21.737Z,5.67
2022-12-20T02:50:21.738Z,5.67
2022-12-20T02:51:21.712Z,5.67
2022-12-20T02:52:21.695Z,5.66
2022-12-20T02:53:21.701Z,5.69
2022-12-20T02:54:21.667Z,5.80
2022-12-20T02:55:21.799Z,5.75
2022-12-20T02:56:21.674Z,5.80
2022-12-20T02:57:21.601Z,5.78
2022-12-20T02:58:21.628Z,5.70
2022-12-20T02:59:21.571Z,5.67
2022-12-20T03:00:21.558Z,5.67
2022-12-20T03:01:21.610Z,5.74
2022-12-20T03:02:22.716Z,5.70
2022-12-20T03:03:21.657Z,5.69
2022-12-20T03:04:21.479Z,5.69
2022-12-20T03:05:21.457Z,5.62
2022-12-20T03:06:21.449Z,5.69
2022-12-20T03:07:21.446Z,5.66
2022-12-20T03:08:21.445Z,5.73
2022-12-20T03:09:21.407Z,5.66
2022-12-20T03:10:21.385Z,5.63
2022-12-20T03:11:21.370Z,5.69
2022-12-20T03:12:21.348Z,5.66
2022-12-20T03:13:21.400Z,5.78
2022-12-20T03:14:21.310Z,5.70
2022-12-20T03:15:21.292Z,5.70
2022-12-20T03:16:21.306Z,5.73
2022-12-20T03:17:21.264Z,5.69
2022-12-20T03:18:21.284Z,5.74
2022-12-20T03:19:21.234Z,5.63
2022-12-20T03:20:21.259Z,5.77
2022-12-20T03:21:21.196Z,5.70
2022-12-20T03:22:21.188Z,5.74
2022-12-20T03:23:21.202Z,5.80
2022-12-20T03:24:21.156Z,5.80
2022-12-20T03:25:21.124Z,5.77
2022-12-20T03:26:21.113Z,5.74
2022-12-20T03:27:21.102Z,5.69
2022-12-20T03:28:21.107Z,5.75
2022-12-20T03:29:21.059Z,5.81
2022-12-20T03:30:21.078Z,5.75
2022-12-20T03:31:21.081Z,5.83
2022-12-20T03:32:21.009Z,5.85
2022-12-20T03:33:21.024Z,5.88
2022-12-20T03:34:20.966Z,5.85
2022-12-20T03:35:20.951Z,6.01
2022-12-20T03:36:20.936Z,5.95
2022-12-20T03:37:20.933Z,5.95
2022-12-20T03:38:20.939Z,6.05
2022-12-20T03:39:20.896Z,6.02
2022-12-20T03:40:20.856Z,6.01
2022-12-20T03:41:20.860Z,6.05
2022-12-20T03:42:20.824Z,6.14
2022-12-20T03:43:20.850Z,6.13
2022-12-20T03:44:20.832Z,6.03
2022-12-20T03:45:20.785Z,6.02
2022-12-20T03:46:20.828Z,6.01
2022-12-20T03:47:20.743Z,5.98
2022-12-20T03:48:20.734Z,6.05
2022-12-20T03:49:20.738Z,5.98
2022-12-20T03:50:20.711Z,6.03
2022-12-20T03:51:20.688Z,6.08
2022-12-20T03:52:20.664Z,6.02
2022-12-20T03:53:20.640Z,6.05
2022-12-20T03:54:20.654Z,5.99
2022-12-20T03:55:20.603Z,6.06
2022-12-20T03:56:20.605Z,6.08
2022-12-20T03:57:20.588Z,6.06
2022-12-20T03:58:20.562Z,6.03
2022-12-20T03:59:20.616Z,6.05
2022-12-20T04:00:20.535Z,6.05
2022-12-20T04:01:20.561Z,6.05
2022-12-20T04:02:20.744Z,6.11
2022-12-20T04:03:20.557Z,6.16
2022-12-20T04:04:20.495Z,6.20
2022-12-20T04:05:20.430Z,6.20
2022-12-20T04:06:20.418Z,6.20
2022-12-20T04:07:20.404Z,6.21
2022-12-20T04:08:20.384Z,6.20
2022-12-20T04:09:20.393Z,6.19
2022-12-20T04:10:20.357Z,6.28
2022-12-20T04:11:20.347Z,6.30
2022-12-20T04:12:20.316Z,6.39
2022-12-20T04:13:20.316Z,6.33
2022-12-20T04:14:20.320Z,6.36
2022-12-20T04:15:20.284Z,6.28
2022-12-20T04:16:20.265Z,6.27
2022-12-20T04:17:20.239Z,6.28
2022-12-20T04:18:20.575Z,6.27
2022-12-20T04:19:20.247Z,6.27
2022-12-20T04:20:20.199Z,6.33
2022-12-20T04:21:20.227Z,6.27
2022-12-20T04:22:20.137Z,6.24
2022-12-20T04:23:20.127Z,6.35
2022-12-20T04:24:20.140Z,6.33
2022-12-20T04:25:20.130Z,6.25
2022-12-20T04:26:20.077Z,6.42
2022-12-20T04:27:20.059Z,6.24
2022-12-20T04:28:20.054Z,6.25
2022-12-20T04:29:20.060Z,6.35
2022-12-20T04:30:20.038Z,6.25
2022-12-20T04:31:23.737Z,6.32
2022-12-20T04:32:20.982Z,6.28
2022-12-20T04:33:19.946Z,6.27
2022-12-20T04:34:19.983Z,6.33
2022-12-20T04:35:19.920Z,6.32
2022-12-20T04:36:19.964Z,6.36
2022-12-20T04:37:19.890Z,6.30
2022-12-20T04:38:19.875Z,6.39
2022-12-20T04:39:19.887Z,6.40
2022-12-20T04:40:19.837Z,6.33
2022-12-20T04:41:19.811Z,6.39
2022-12-20T04:42:19.804Z,6.30
2022-12-20T04:43:19.788Z,6.25
2022-12-20T04:44:19.827Z,6.28
2022-12-20T04:45:19.741Z,6.36
2022-12-20T04:46:19.833Z,6.30
2022-12-20T04:47:19.704Z,6.30
2022-12-20T04:48:55.304Z,6.33
2022-12-20T04:49:21.891Z,6.32
2022-12-20T04:50:19.661Z,6.35
2022-12-20T04:51:19.653Z,6.42
2022-12-20T04:52:19.633Z,6.32
2022-12-20T04:53:19.615Z,6.28
2022-12-20T04:54:19.626Z,6.32
2022-12-20T04:55:19.595Z,6.14
2022-12-20T04:56:19.597Z,6.21
2022-12-20T04:57:19.547Z,6.27
2022-12-20T04:58:19.554Z,6.27
2022-12-20T04:59:19.555Z,6.20
2022-12-20T05:00:19.499Z,6.32
2022-12-20T05:01:19.634Z,6.28
2022-12-20T05:02:19.519Z,6.27
2022-12-20T05:03:19.487Z,6.28
2022-12-20T05:04:19.469Z,6.25
2022-12-20T05:05:19.429Z,6.28
2022-12-20T05:06:19.406Z,6.32
2022-12-20T05:07:19.384Z,6.38
2022-12-20T05:08:19.398Z,6.33
2022-12-20T05:09:19.378Z,6.33
2022-12-20T05:10:19.340Z,6.33
2022-12-20T05:11:19.302Z,6.42
2022-12-20T05:12:19.318Z,6.40
2022-12-20T05:13:19.279Z,6.40
2022-12-20T05:14:19.298Z,6.32
2022-12-20T05:15:19.252Z,6.36
2022-12-20T05:16:19.271Z,6.30
2022-12-20T05:17:19.253Z,6.27
2022-12-20T05:18:19.195Z,6.33
2022-12-20T05:19:19.367Z,6.39
2022-12-20T05:20:19.211Z,6.27
2022-12-20T05:21:19.186Z,6.38
2022-12-20T05:22:20.174Z,6.21
2022-12-20T05:23:19.132Z,6.24
2022-12-20T05:24:19.141Z,6.33
2022-12-20T05:25:19.082Z,6.30
2022-12-20T05:26:19.088Z,6.28
2022-12-20T05:27:19.180Z,6.25
2022-12-20T05:28:19.045Z,6.25
2022-12-20T05:29:19.051Z,6.32
2022-12-20T05:30:19.021Z,6.38
2022-12-20T05:31:19.061Z,6.43
2022-12-20T05:32:18.972Z,6.32
2022-12-20T05:33:18.942Z,6.42
2022-12-20T05:34:19.970Z,6.38
2022-12-20T05:35:18.930Z,6.33
2022-12-20T05:36:18.922Z,6.38
2022-12-20T05:37:18.902Z,6.36
2022-12-20T05:38:18.863Z,6.40
2022-12-20T05:39:18.909Z,6.42
2022-12-20T05:40:18.869Z,6.42
2022-12-20T05:41:18.802Z,6.40
2022-12-20T05:42:18.792Z,6.50
2022-12-20T05:43:18.784Z,6.45
2022-12-20T05:44:18.780Z,6.50
2022-12-20T05:45:18.770Z,6.46
2022-12-20T05:46:18.766Z,6.39
2022-12-20T05:47:18.710Z,6.43
2022-12-20T05:48:18.690Z,6.43
2022-12-20T05:49:18.685Z,6.51
2022-12-20T05:50:19.369Z,6.40
2022-12-20T05:51:19.690Z,6.43
2022-12-20T05:52:18.625Z,6.50
2022-12-20T05:53:18.643Z,6.51
2022-12-20T05:54:18.611Z,6.48
2022-12-20T05:55:18.620Z,6.40
2022-12-20T05:56:18.558Z,6.40
2022-12-20T05:57:18.549Z,6.39
2022-12-20T05:58:18.542Z,6.39
2022-12-20T05:59:18.499Z,6.40
2022-12-20T06:00:18.525Z,6.38
2022-12-20T06:01:18.462Z,6.39
2022-12-20T06:02:18.546Z,6.40
2022-12-20T06:03:18.585Z,6.40
2022-12-20T06:04:18.481Z,6.54
2022-12-20T06:05:18.504Z,6.32
2022-12-20T06:06:18.385Z,6.40
2022-12-20T06:07:18.358Z,6.38
2022-12-20T06:08:18.374Z,6.40
2022-12-20T06:09:18.322Z,6.38
2022-12-20T06:10:18.446Z,6.45
2022-12-20T06:11:18.286Z,6.33
2022-12-20T06:12:18.274Z,6.42
2022-12-20T06:13:18.288Z,6.54
2022-12-20T06:14:18.235Z,6.54
2022-12-20T06:15:18.265Z,6.55
2022-12-20T06:16:18.227Z,6.45
2022-12-20T06:17:18.194Z,6.40
2022-12-20T06:18:18.180Z,6.57
2022-12-20T06:19:21.645Z,6.42
2022-12-20T06:20:19.233Z,6.50
2022-12-20T06:21:18.138Z,6.50
2022-12-20T06:22:18.150Z,6.46
2022-12-20T06:23:18.094Z,6.42
2022-12-20T06:24:18.073Z,6.38
2022-12-20T06:25:19.108Z,6.48
2022-12-20T06:26:18.037Z,6.40
2022-12-20T06:27:18.031Z,6.46
2022-12-20T06:28:18.019Z,6.42
2022-12-20T06:29:17.977Z,6.40
2022-12-20T06:30:18.062Z,6.45
2022-12-20T06:31:17.963Z,6.42
2022-12-20T06:32:17.939Z,6.43
2022-12-20T06:33:17.931Z,6.48
2022-12-20T06:34:17.895Z,6.48
2022-12-20T06:35:17.923Z,6.40
2022-12-20T06:36:17.874Z,6.46
2022-12-20T06:37:17.899Z,6.36
2022-12-20T06:38:17.831Z,6.46
2022-12-20T06:39:17.813Z,6.45
2022-12-20T06:40:17.853Z,6.53
2022-12-20T06:41:17.768Z,6.48
2022-12-20T06:42:17.783Z,6.55
2022-12-20T06:43:17.744Z,6.58
2022-12-20T06:44:17.760Z,6.69
2022-12-20T06:45:17.745Z,6.64
2022-12-20T06:46:17.695Z,6.68
2022-12-20T06:47:17.671Z,6.73
2022-12-20T06:48:17.656Z,6.64
2022-12-20T06:49:17.649Z,6.65
2022-12-20T06:50:17.649Z,6.63
2022-12-20T06:51:17.612Z,6.58
2022-12-20T06:52:17.588Z,6.63
2022-12-20T06:53:17.571Z,6.61
2022-12-20T06:54:17.698Z,6.69
2022-12-20T06:55:17.613Z,6.68
2022-12-20T06:56:17.513Z,6.68
2022-12-20T06:57:17.547Z,6.63
2022-12-20T06:58:17.595Z,6.82
2022-12-20T06:59:17.470Z,6.79
2022-12-20T07:00:17.481Z,6.71
2022-12-20T07:01:17.549Z,6.73
2022-12-20T07:02:17.612Z,6.79
2022-12-20T07:03:17.663Z,6.81
2022-12-20T07:04:17.387Z,6.68
2022-12-20T07:05:17.383Z,6.79
2022-12-20T07:06:17.340Z,6.68
2022-12-20T07:07:17.320Z,6.71
2022-12-20T07:08:17.327Z,6.86
2022-12-20T07:09:17.325Z,6.68
2022-12-20T07:10:17.303Z,6.79
2022-12-20T07:11:17.262Z,6.69
2022-12-20T07:12:17.245Z,6.68
2022-12-20T07:13:17.240Z,6.65
2022-12-20T07:14:17.214Z,6.71
2022-12-20T07:15:17.221Z,6.76
2022-12-20T07:16:17.235Z,6.82
2022-12-20T07:17:17.169Z,6.73
2022-12-20T07:18:17.150Z,6.63
2022-12-20T07:19:17.120Z,6.73
2022-12-20T07:20:17.146Z,6.72
2022-12-20T07:21:17.106Z,6.73
2022-12-20T07:22:17.081Z,6.79
2022-12-20T07:23:17.070Z,6.75
2022-12-20T07:24:17.063Z,6.81
2022-12-20T07:25:17.067Z,6.71
2022-12-20T07:26:16.993Z,6.81
2022-12-20T07:27:18.037Z,6.82
2022-12-20T07:28:16.968Z,6.83
2022-12-20T07:29:16.986Z,6.82
2022-12-20T07:30:16.981Z,6.83
2022-12-20T07:31:16.947Z,6.69
2022-12-20T07:32:16.967Z,6.83
2022-12-20T07:33:16.886Z,6.83
2022-12-20T07:34:16.856Z,6.75
2022-12-20T07:35:16.897Z,6.72
2022-12-20T07:36:16.832Z,6.72
2022-12-20T07:37:16.814Z,6.75
2022-12-20T07:38:16.803Z,6.73
2022-12-20T07:39:16.836Z,6.75
2022-12-20T07:40:16.803Z,6.90
2022-12-20T07:41:16.774Z,6.82
2022-12-20T07:42:16.718Z,6.89
2022-12-20T07:43:16.716Z,6.83
2022-12-20T07:44:16.680Z,6.83
2022-12-20T07:45:16.662Z,6.78
2022-12-20T07:46:16.755Z,6.79
2022-12-20T07:47:16.633Z,6.76
2022-12-20T07:48:21.536Z,6.81
2022-12-20T07:49:17.612Z,6.87
2022-12-20T07:50:16.598Z,6.94
2022-12-20T07:51:16.600Z,6.78
2022-12-20T07:52:16.555Z,6.82
2022-12-20T07:53:16.541Z,6.83
2022-12-20T07:54:16.540Z,6.82
2022-12-20T07:55:16.523Z,6.76
2022-12-20T07:56:16.515Z,6.79
2022-12-20T07:57:16.465Z,6.91
2022-12-20T07:58:16.490Z,6.90
2022-12-20T07:59:16.421Z,6.90
2022-12-20T08:00:16.417Z,6.83
2022-12-20T08:01:16.546Z,6.93
2022-12-20T08:02:16.611Z,6.86
2022-12-20T08:03:16.505Z,6.93
2022-12-20T08:04:16.357Z,6.91
2022-12-20T08:05:16.396Z,7.00
2022-12-20T08:06:16.358Z,6.90
2022-12-20T08:07:16.303Z,6.87
2022-12-20T08:08:16.289Z,6.99
2022-12-20T08:09:16.271Z,6.96
2022-12-20T08:10:16.243Z,7.00
2022-12-20T08:11:16.260Z,6.96
2022-12-20T08:12:16.234Z,7.05
2022-12-20T08:13:16.208Z,7.04
2022-12-20T08:14:16.172Z,7.00
2022-12-20T08:15:16.173Z,7.07
2022-12-20T08:16:16.248Z,7.09
2022-12-20T08:17:16.179Z,7.00
2022-12-20T08:18:16.140Z,7.04
2022-12-20T08:19:16.097Z,7.15
2022-12-20T08:20:16.231Z,7.08
2022-12-20T08:21:16.213Z,7.11
2022-12-20T08:22:16.247Z,7.18
2022-12-20T08:23:16.128Z,7.21
2022-12-20T08:24:16.013Z,7.18
2022-12-20T08:25:15.993Z,7.11
2022-12-20T08:26:16.010Z,7.09
2022-12-20T08:27:15.956Z,7.12
2022-12-20T08:28:15.955Z,7.14
2022-12-20T08:29:15.918Z,7.07
2022-12-20T08:30:15.901Z,7.15
2022-12-20T08:31:16.014Z,7.12
2022-12-20T08:32:15.858Z,7.12
2022-12-20T08:33:15.847Z,7.19
2022-12-20T08:34:15.833Z,7.24
2022-12-20T08:35:15.825Z,7.32
2022-12-20T08:36:15.838Z,7.32
2022-12-20T08:37:15.792Z,7.36
2022-12-20T08:38:15.767Z,7.44
2022-12-20T08:39:15.776Z,7.45
2022-12-20T08:40:15.734Z,7.50
2022-12-20T08:41:15.783Z,7.48
2022-12-20T08:42:15.713Z,7.44
2022-12-20T08:43:15.686Z,7.45
2022-12-20T08:44:15.660Z,7.47
2022-12-20T08:45:15.662Z,7.34
2022-12-20T08:46:15.686Z,7.47
2022-12-20T08:47:15.613Z,7.82
2022-12-20T08:48:15.628Z,7.76
2022-12-20T08:49:15.577Z,7.67
2022-12-20T08:50:15.574Z,7.63
2022-12-20T08:51:15.654Z,7.62
2022-12-20T08:52:15.554Z,7.60
2022-12-20T08:53:15.545Z,7.47
2022-12-20T08:54:15.507Z,7.52
2022-12-20T08:55:15.483Z,7.55
2022-12-20T08:56:15.512Z,7.50
2022-12-20T08:57:15.445Z,7.55
2022-12-20T08:58:15.430Z,7.48
2022-12-20T08:59:15.475Z,7.48
2022-12-20T09:00:15.394Z,7.51
2022-12-20T09:01:15.491Z,7.55
2022-12-20T09:02:15.491Z,7.62
2022-12-20T09:03:15.509Z,7.67
2022-12-20T09:04:15.333Z,7.66
2022-12-20T09:05:15.317Z,7.84
2022-12-20T09:06:15.284Z,7.89
2022-12-20T09:07:15.291Z,7.99
2022-12-20T09:08:15.258Z,8.13
2022-12-20T09:09:15.255Z,8.13
2022-12-20T09:10:15.246Z,8.29
2022-12-20T09:11:15.212Z,8.39
2022-12-20T09:12:15.229Z,8.45
2022-12-20T09:13:15.193Z,8.45
2022-12-20T09:14:15.153Z,8.39
2022-12-20T09:15:15.131Z,8.32
2022-12-20T09:16:15.178Z,8.39
2022-12-20T09:17:15.129Z,8.47
2022-12-20T09:18:15.106Z,8.46
2022-12-20T09:19:15.064Z,8.79
2022-12-20T09:20:15.065Z,8.82
2022-12-20T09:21:15.039Z,9.01
2022-12-20T09:22:15.074Z,9.10
2022-12-20T09:23:15.041Z,9.38
2022-12-20T09:24:14.997Z,9.49
2022-12-20T09:25:14.964Z,9.35
2022-12-20T09:26:14.954Z,9.58
2022-12-20T09:27:14.968Z,9.58
2022-12-20T09:28:14.920Z,9.55
2022-12-20T09:29:19.453Z,9.78
2022-12-20T09:30:15.904Z,9.77
2022-12-20T09:31:14.986Z,9.73
2022-12-20T09:32:14.894Z,10.04
2022-12-20T09:33:14.829Z,10.18
2022-12-20T09:34:14.816Z,10.57
2022-12-20T09:35:20.982Z,10.91
2022-12-20T09:36:16.794Z,11.42
2022-12-20T09:37:14.796Z,11.98
2022-12-20T09:38:14.809Z,12.40
2022-12-20T09:39:14.748Z,12.85
2022-12-20T09:40:14.722Z,13.31
2022-12-20T09:41:19.259Z,13.88
2022-12-20T09:42:16.726Z,14.45
2022-12-20T09:43:14.669Z,14.74
2022-12-20T09:44:14.682Z,14.98
2022-12-20T09:45:14.637Z,15.11
2022-12-20T09:46:14.668Z,14.98
2022-12-20T09:47:14.691Z,14.52
2022-12-20T09:48:14.624Z,14.06
2022-12-20T09:49:14.569Z,13.48
2022-12-20T09:50:14.567Z,12.94
2022-12-20T09:51:14.558Z,12.61
2022-12-20T09:52:14.543Z,12.11
2022-12-20T09:53:18.273Z,11.74
2022-12-20T09:54:15.498Z,11.42
2022-12-20T09:55:14.461Z,11.17
2022-12-20T09:56:14.459Z,10.98
2022-12-20T09:57:14.455Z,10.83
2022-12-20T09:58:14.422Z,10.62
2022-12-20T09:59:14.425Z,10.43
2022-12-20T10:00:14.396Z,10.16
2022-12-20T10:01:15.511Z,10.07
2022-12-20T10:02:44.462Z,10.01
2022-12-20T10:03:16.507Z,10.01
2022-12-20T10:04:14.394Z,9.95
2022-12-20T10:05:14.510Z,9.78
2022-12-20T10:06:14.308Z,9.77
2022-12-20T10:07:14.310Z,9.67
2022-12-20T10:08:14.249Z,9.65
2022-12-20T10:09:14.235Z,9.52
2022-12-20T10:10:14.240Z,9.49
2022-12-20T10:11:14.210Z,9.45
2022-12-20T10:12:14.233Z,9.45
2022-12-20T10:13:14.173Z,9.48
2022-12-20T10:14:14.191Z,9.48
2022-12-20T10:15:14.145Z,9.53
2022-12-20T10:16:14.211Z,9.50
2022-12-20T10:17:14.150Z,9.44
2022-12-20T10:18:14.099Z,9.30
2022-12-20T10:19:14.076Z,9.34
2022-12-20T10:20:14.052Z,9.30
2022-12-20T10:21:14.047Z,9.22
2022-12-20T10:22:14.061Z,9.20
2022-12-20T10:23:14.009Z,9.20
2022-12-20T10:24:13.987Z,9.22
2022-12-20T10:25:13.978Z,9.26
2022-12-20T10:26:13.958Z,9.32
2022-12-20T10:27:13.971Z,9.35
2022-12-20T10:28:13.918Z,9.31
2022-12-20T10:29:13.908Z,9.15
2022-12-20T10:30:13.886Z,9.27
2022-12-20T10:31:14.024Z,9.26
2022-12-20T10:32:13.893Z,9.20
2022-12-20T10:33:13.840Z,9.31
2022-12-20T10:34:13.833Z,9.20
2022-12-20T10:35:13.809Z,9.17
2022-12-20T10:36:13.777Z,9.22
2022-12-20T10:37:13.791Z,9.10
2022-12-20T10:38:13.751Z,9.06
2022-12-20T10:39:13.727Z,9.10
2022-12-20T10:40:13.714Z,8.98
2022-12-20T10:41:22.544Z,9.08
2022-12-20T10:42:15.734Z,8.93
2022-12-20T10:43:13.699Z,9.03
2022-12-20T10:44:13.648Z,8.97
2022-12-20T10:45:13.638Z,9.00
2022-12-20T10:46:13.655Z,9.10
2022-12-20T10:47:13.629Z,9.12
2022-12-20T10:48:13.574Z,9.12
2022-12-20T10:49:13.580Z,9.08
2022-12-20T10:50:13.540Z,9.19
2022-12-20T10:51:16.321Z,9.15
2022-12-20T10:52:14.546Z,9.24
2022-12-20T10:53:13.514Z,9.20
2022-12-20T10:54:13.520Z,9.23
2022-12-20T10:55:13.510Z,9.40
2022-12-20T10:56:13.433Z,9.37
2022-12-20T10:57:14.983Z,9.32
2022-12-20T10:58:14.445Z,9.48
2022-12-20T10:59:13.397Z,9.42
2022-12-20T11:00:13.388Z,9.56
2022-12-20T11:01:13.368Z,9.60
2022-12-20T11:02:13.428Z,9.48
2022-12-20T11:03:13.675Z,9.56
2022-12-20T11:04:13.326Z,9.65
2022-12-20T11:05:13.285Z,9.65
2022-12-20T11:06:13.270Z,9.48
2022-12-20T11:07:13.251Z,9.30
2022-12-20T11:09:15.419Z,9.40
2022-12-20T11:10:13.209Z,9.42
2022-12-20T11:11:13.183Z,9.42
2022-12-20T11:12:13.169Z,9.42
2022-12-20T11:13:13.187Z,9.44
2022-12-20T11:14:13.140Z,9.53
2022-12-20T11:15:13.122Z,9.42
2022-12-20T11:16:13.152Z,9.37
2022-12-20T11:17:13.082Z,9.41
2022-12-20T11:18:13.115Z,9.48
2022-12-20T11:19:13.126Z,9.50
2022-12-20T11:20:13.058Z,9.45
2022-12-20T11:21:17.130Z,9.40
2022-12-20T11:22:15.024Z,9.34
2022-12-20T11:23:13.018Z,9.38
2022-12-20T11:24:12.962Z,9.49
2022-12-20T11:25:12.966Z,9.42
2022-12-20T11:26:12.941Z,9.44
2022-12-20T11:27:15.645Z,9.35
2022-12-20T11:28:13.948Z,9.40
2022-12-20T11:29:12.879Z,9.41
2022-12-20T11:30:12.867Z,9.37
2022-12-20T11:31:12.893Z,9.41
2022-12-20T11:32:12.854Z,9.42
2022-12-20T11:33:12.860Z,9.48
2022-12-20T11:34:12.823Z,9.60
2022-12-20T11:35:12.793Z,9.55
2022-12-20T11:36:12.778Z,9.67
2022-12-20T11:37:12.752Z,9.67
2022-12-20T11:38:12.776Z,9.68
2022-12-20T11:39:12.751Z,9.68
2022-12-20T11:40:12.753Z,9.81
2022-12-20T11:41:12.699Z,9.75
2022-12-20T11:42:12.675Z,9.85
2022-12-20T11:43:12.697Z,9.95
2022-12-20T11:44:25.404Z,9.88
2022-12-20T11:45:14.643Z,9.95
2022-12-20T11:46:12.620Z,9.93
2022-12-20T11:47:12.656Z,9.92
2022-12-20T11:48:12.613Z,9.88
2022-12-20T11:49:12.605Z,9.77
2022-12-20T11:50:12.542Z,9.96
2022-12-20T11:51:16.124Z,9.92
2022-12-20T11:52:14.534Z,9.91
2022-12-20T11:53:12.560Z,9.89
2022-12-20T11:54:12.495Z,9.86
2022-12-20T11:55:12.472Z,9.89
2022-12-20T11:56:14.057Z,9.98
2022-12-20T11:57:12.427Z,9.96
2022-12-20T11:58:20.561Z,9.96
2022-12-20T11:59:14.429Z,9.92
2022-12-20T12:00:12.390Z,9.92
2022-12-20T12:01:12.355Z,9.96
2022-12-20T12:02:12.501Z,9.92
2022-12-20T12:03:12.407Z,9.99
2022-12-20T12:04:12.324Z,10.04
2022-12-20T12:05:12.367Z,10.04
2022-12-20T12:06:12.275Z,10.07
2022-12-20T12:07:12.298Z,10.13
2022-12-20T12:08:18.025Z,9.96
2022-12-20T12:09:14.221Z,9.96
2022-12-20T12:10:12.211Z,9.89
2022-12-20T12:11:31.941Z,9.93
2022-12-20T12:12:14.197Z,9.98
2022-12-20T12:13:12.198Z,9.99
2022-12-20T12:14:12.136Z,9.93
2022-12-20T12:15:16.273Z,10.02
2022-12-20T12:16:14.172Z,9.96
2022-12-20T12:17:12.097Z,10.04
2022-12-20T12:18:12.098Z,9.92
2022-12-20T12:19:12.140Z,9.98
2022-12-20T12:20:12.047Z,9.99
2022-12-20T12:21:12.034Z,10.07
2022-12-20T12:22:12.013Z,10.14
2022-12-20T12:23:12.031Z,10.11
2022-12-20T12:24:12.004Z,10.14
2022-12-20T12:25:11.954Z,10.07
2022-12-20T12:26:11.927Z,10.13
2022-12-20T12:27:16.081Z,10.24
2022-12-20T12:28:12.948Z,10.06
2022-12-20T12:29:12.008Z,10.04
2022-12-20T12:30:11.883Z,10.13
2022-12-20T12:31:11.859Z,10.13
2022-12-20T12:32:11.951Z,10.06
2022-12-20T12:33:11.848Z,10.02
2022-12-20T12:34:11.869Z,10.02
2022-12-20T12:35:11.784Z,9.91
2022-12-20T12:36:11.767Z,9.92
2022-12-20T12:37:11.743Z,9.91
2022-12-20T12:38:11.772Z,9.91
2022-12-20T12:39:11.767Z,9.92
2022-12-20T12:40:11.722Z,9.93
2022-12-20T12:41:11.735Z,9.85
2022-12-20T12:42:11.677Z,9.89
2022-12-20T12:43:11.665Z,9.86
2022-12-20T12:44:11.666Z,9.85
2022-12-20T12:45:11.645Z,9.77
2022-12-20T12:46:14.433Z,9.81
2022-12-20T12:47:12.612Z,9.86
2022-12-20T12:48:11.552Z,9.86
2022-12-20T12:49:11.672Z,9.86
2022-12-20T12:50:11.515Z,9.89
2022-12-20T12:51:11.512Z,9.86
2022-12-20T12:52:11.565Z,9.88
2022-12-20T12:53:11.486Z,9.83
2022-12-20T12:54:11.488Z,9.89
2022-12-20T12:55:11.529Z,9.83
2022-12-20T12:56:41.688Z,9.95
2022-12-20T12:57:13.400Z,9.86
2022-12-20T12:58:11.420Z,9.91
2022-12-20T12:59:12.403Z,10.01
2022-12-20T13:00:11.377Z,9.89
2022-12-20T13:01:11.371Z,9.91
2022-12-20T13:02:11.551Z,9.93
2022-12-20T13:03:11.456Z,9.75
2022-12-20T13:04:11.330Z,9.77
2022-12-20T13:05:11.290Z,9.67
2022-12-20T13:06:11.276Z,9.63
2022-12-20T13:07:11.263Z,9.75
2022-12-20T13:08:11.222Z,9.74
2022-12-20T13:09:11.248Z,9.74
2022-12-20T13:10:11.188Z,9.74
2022-12-20T13:11:11.185Z,9.70
2022-12-20T13:12:11.941Z,9.78
2022-12-20T13:13:12.173Z,9.75
2022-12-20T13:14:11.165Z,9.74
2022-12-20T13:15:11.165Z,9.67
2022-12-20T13:16:11.170Z,9.74
2022-12-20T13:17:13.135Z,9.85